sensor_id;sensor_type;location;lat;lon;timestamp;P1;durP1;ratioP1;P2;durP2;ratioP2
20482;SDS011;10400;53.198;6.592;2023-02-28T00:01:27;7.75;;;3.50;;
20482;SDS011;10400;53.198;6.592;2023-02-28T00:03:53;7.03;;;3.45;;
20482;SDS011;10400;53.198;6.592;2023-02-28T00:06:19;10.43;;;2.60;;
20482;SDS011;10400;53.198;6.592;2023-02-28T00:08:45;7.90;;;2.65;;
20482;SDS011;10400;53.198;6.592;2023-02-28T00:11:11;5.22;;;2.97;;
20482;SDS011;10400;53.198;6.592;2023-02-28T00:13:43;10.80;;;3.00;;
20482;SDS011;10400;53.198;6.592;2023-02-28T00:16:17;9.52;;;2.80;;
20482;SDS011;10400;53.198;6.592;2023-02-28T00:18:44;9.02;;;3.30;;
20482;SDS011;10400;53.198;6.592;2023-02-28T00:21:10;7.82;;;3.17;;
20482;SDS011;10400;53.198;6.592;2023-02-28T00:23:36;9.82;;;2.97;;
20482;SDS011;10400;53.198;6.592;2023-02-28T00:26:02;7.82;;;3.05;;
20482;SDS011;10400;53.198;6.592;2023-02-28T00:28:27;12.88;;;3.17;;
20482;SDS011;10400;53.198;6.592;2023-02-28T00:30:53;8.93;;;3.25;;
20482;SDS011;10400;53.198;6.592;2023-02-28T00:33:19;11.05;;;3.03;;
20482;SDS011;10400;53.198;6.592;2023-02-28T00:35:44;6.63;;;3.03;;
20482;SDS011;10400;53.198;6.592;2023-02-28T00:38:11;9.23;;;3.28;;
20482;SDS011;10400;53.198;6.592;2023-02-28T00:40:38;10.45;;;3.33;;
20482;SDS011;10400;53.198;6.592;2023-02-28T00:43:03;7.00;;;2.95;;
20482;SDS011;10400;53.198;6.592;2023-02-28T00:45:29;7.60;;;3.38;;
20482;SDS011;10400;53.198;6.592;2023-02-28T00:47:55;8.85;;;3.70;;
20482;SDS011;10400;53.198;6.592;2023-02-28T00:50:20;9.07;;;3.20;;
20482;SDS011;10400;53.198;6.592;2023-02-28T00:52:46;8.20;;;3.60;;
20482;SDS011;10400;53.198;6.592;2023-02-28T00:55:13;6.22;;;3.30;;
20482;SDS011;10400;53.198;6.592;2023-02-28T00:57:39;12.65;;;3.65;;
20482;SDS011;10400;53.198;6.592;2023-02-28T01:00:05;10.55;;;3.95;;
20482;SDS011;10400;53.198;6.592;2023-02-28T01:02:31;9.15;;;3.58;;
20482;SDS011;10400;53.198;6.592;2023-02-28T01:04:57;8.90;;;3.58;;
20482;SDS011;10400;53.198;6.592;2023-02-28T01:07:23;8.40;;;3.00;;
20482;SDS011;10400;53.198;6.592;2023-02-28T01:09:49;7.35;;;3.15;;
20482;SDS011;10400;53.198;6.592;2023-02-28T01:12:14;8.48;;;3.67;;
20482;SDS011;10400;53.198;6.592;2023-02-28T01:14:40;11.55;;;3.22;;
20482;SDS011;10400;53.198;6.592;2023-02-28T01:17:06;11.57;;;3.72;;
20482;SDS011;10400;53.198;6.592;2023-02-28T01:19:32;7.40;;;3.45;;
20482;SDS011;10400;53.198;6.592;2023-02-28T01:22:00;6.32;;;3.00;;
20482;SDS011;10400;53.198;6.592;2023-02-28T01:24:30;9.70;;;3.80;;
20482;SDS011;10400;53.198;6.592;2023-02-28T01:26:56;8.13;;;3.92;;
20482;SDS011;10400;53.198;6.592;2023-02-28T01:29:22;8.57;;;3.30;;
20482;SDS011;10400;53.198;6.592;2023-02-28T01:31:48;10.23;;;3.17;;
20482;SDS011;10400;53.198;6.592;2023-02-28T01:34:13;6.45;;;3.25;;
20482;SDS011;10400;53.198;6.592;2023-02-28T01:36:39;9.05;;;3.60;;
20482;SDS011;10400;53.198;6.592;2023-02-28T01:39:05;9.95;;;3.25;;
20482;SDS011;10400;53.198;6.592;2023-02-28T01:41:32;5.45;;;3.30;;
20482;SDS011;10400;53.198;6.592;2023-02-28T01:47:02;8.43;;;3.60;;
20482;SDS011;10400;53.198;6.592;2023-02-28T01:49:27;13.35;;;4.25;;
20482;SDS011;10400;53.198;6.592;2023-02-28T01:51:53;9.20;;;3.78;;
20482;SDS011;10400;53.198;6.592;2023-02-28T01:54:25;11.25;;;4.07;;
20482;SDS011;10400;53.198;6.592;2023-02-28T01:56:58;10.25;;;3.95;;
20482;SDS011;10400;53.198;6.592;2023-02-28T02:02:02;16.50;;;4.35;;
20482;SDS011;10400;53.198;6.592;2023-02-28T02:04:31;11.63;;;4.03;;
20482;SDS011;10400;53.198;6.592;2023-02-28T02:07:01;9.55;;;4.50;;
20482;SDS011;10400;53.198;6.592;2023-02-28T02:09:28;16.42;;;5.00;;
20482;SDS011;10400;53.198;6.592;2023-02-28T02:11:53;10.02;;;4.63;;
20482;SDS011;10400;53.198;6.592;2023-02-28T02:20:13;9.32;;;4.45;;
20482;SDS011;10400;53.198;6.592;2023-02-28T02:37:13;14.50;;;4.90;;
20482;SDS011;10400;53.198;6.592;2023-02-28T02:39:59;11.82;;;4.95;;
20482;SDS011;10400;53.198;6.592;2023-02-28T02:42:36;14.10;;;4.70;;
20482;SDS011;10400;53.198;6.592;2023-02-28T02:48:03;10.57;;;4.30;;
20482;SDS011;10400;53.198;6.592;2023-02-28T02:50:35;10.15;;;4.63;;
20482;SDS011;10400;53.198;6.592;2023-02-28T02:53:03;12.20;;;4.53;;
20482;SDS011;10400;53.198;6.592;2023-02-28T02:55:32;9.48;;;4.32;;
20482;SDS011;10400;53.198;6.592;2023-02-28T02:58:03;9.18;;;4.43;;
20482;SDS011;10400;53.198;6.592;2023-02-28T03:00:34;11.00;;;4.68;;
20482;SDS011;10400;53.198;6.592;2023-02-28T03:03:06;8.43;;;4.85;;
20482;SDS011;10400;53.198;6.592;2023-02-28T03:05:35;8.88;;;5.07;;
20482;SDS011;10400;53.198;6.592;2023-02-28T03:08:11;9.77;;;4.70;;
20482;SDS011;10400;53.198;6.592;2023-02-28T03:10:44;11.70;;;5.40;;
20482;SDS011;10400;53.198;6.592;2023-02-28T03:13:17;12.25;;;5.05;;
20482;SDS011;10400;53.198;6.592;2023-02-28T03:26:29;9.73;;;6.35;;
20482;SDS011;10400;53.198;6.592;2023-02-28T03:29:13;17.80;;;6.95;;
20482;SDS011;10400;53.198;6.592;2023-02-28T03:31:48;11.93;;;7.13;;
20482;SDS011;10400;53.198;6.592;2023-02-28T03:34:26;13.40;;;7.60;;
20482;SDS011;10400;53.198;6.592;2023-02-28T03:36:59;10.98;;;7.03;;
20482;SDS011;10400;53.198;6.592;2023-02-28T03:42:02;13.43;;;6.72;;
20482;SDS011;10400;53.198;6.592;2023-02-28T03:44:34;13.63;;;7.20;;
20482;SDS011;10400;53.198;6.592;2023-02-28T03:49:44;11.43;;;6.95;;
20482;SDS011;10400;53.198;6.592;2023-02-28T03:52:16;9.65;;;5.60;;
20482;SDS011;10400;53.198;6.592;2023-02-28T03:54:45;11.00;;;6.07;;
20482;SDS011;10400;53.198;6.592;2023-02-28T03:57:37;9.52;;;6.00;;
20482;SDS011;10400;53.198;6.592;2023-02-28T04:00:10;8.35;;;6.30;;
20482;SDS011;10400;53.198;6.592;2023-02-28T04:02:42;11.10;;;6.43;;
20482;SDS011;10400;53.198;6.592;2023-02-28T04:05:08;10.18;;;6.50;;
20482;SDS011;10400;53.198;6.592;2023-02-28T04:07:34;9.97;;;6.67;;
20482;SDS011;10400;53.198;6.592;2023-02-28T04:10:00;11.57;;;6.28;;
20482;SDS011;10400;53.198;6.592;2023-02-28T04:12:26;11.10;;;6.45;;
20482;SDS011;10400;53.198;6.592;2023-02-28T04:14:51;9.38;;;6.00;;
20482;SDS011;10400;53.198;6.592;2023-02-28T04:17:17;7.38;;;5.20;;
20482;SDS011;10400;53.198;6.592;2023-02-28T04:19:43;8.82;;;5.85;;
20482;SDS011;10400;53.198;6.592;2023-02-28T04:22:09;8.10;;;5.78;;
20482;SDS011;10400;53.198;6.592;2023-02-28T04:24:35;7.95;;;5.88;;
20482;SDS011;10400;53.198;6.592;2023-02-28T04:27:02;8.68;;;4.88;;
20482;SDS011;10400;53.198;6.592;2023-02-28T04:29:31;8.27;;;5.10;;
20482;SDS011;10400;53.198;6.592;2023-02-28T04:31:57;6.90;;;5.20;;
20482;SDS011;10400;53.198;6.592;2023-02-28T04:34:24;9.43;;;5.17;;
20482;SDS011;10400;53.198;6.592;2023-02-28T04:36:51;6.13;;;5.03;;
20482;SDS011;10400;53.198;6.592;2023-02-28T04:39:19;7.67;;;4.67;;
20482;SDS011;10400;53.198;6.592;2023-02-28T04:41:46;10.13;;;5.57;;
20482;SDS011;10400;53.198;6.592;2023-02-28T04:44:12;8.07;;;5.05;;
20482;SDS011;10400;53.198;6.592;2023-02-28T04:46:38;10.10;;;5.50;;
20482;SDS011;10400;53.198;6.592;2023-02-28T04:49:04;8.15;;;5.28;;
20482;SDS011;10400;53.198;6.592;2023-02-28T04:51:30;8.00;;;4.80;;
20482;SDS011;10400;53.198;6.592;2023-02-28T04:53:55;8.07;;;5.43;;
20482;SDS011;10400;53.198;6.592;2023-02-28T04:56:21;7.07;;;4.95;;
20482;SDS011;10400;53.198;6.592;2023-02-28T04:58:47;6.97;;;5.13;;
20482;SDS011;10400;53.198;6.592;2023-02-28T05:01:24;5.60;;;4.40;;
20482;SDS011;10400;53.198;6.592;2023-02-28T05:03:53;8.57;;;5.25;;
20482;SDS011;10400;53.198;6.592;2023-02-28T05:06:22;7.63;;;5.20;;
20482;SDS011;10400;53.198;6.592;2023-02-28T05:08:49;6.75;;;4.95;;
20482;SDS011;10400;53.198;6.592;2023-02-28T05:11:20;5.78;;;4.72;;
20482;SDS011;10400;53.198;6.592;2023-02-28T05:14:03;7.27;;;5.50;;
20482;SDS011;10400;53.198;6.592;2023-02-28T05:16:31;7.83;;;5.40;;
20482;SDS011;10400;53.198;6.592;2023-02-28T05:18:57;8.93;;;5.60;;
20482;SDS011;10400;53.198;6.592;2023-02-28T05:21:27;10.00;;;5.88;;
20482;SDS011;10400;53.198;6.592;2023-02-28T05:24:03;11.20;;;6.00;;
20482;SDS011;10400;53.198;6.592;2023-02-28T05:26:35;8.43;;;5.73;;
20482;SDS011;10400;53.198;6.592;2023-02-28T05:29:02;11.37;;;6.60;;
20482;SDS011;10400;53.198;6.592;2023-02-28T05:31:28;12.03;;;6.70;;
20482;SDS011;10400;53.198;6.592;2023-02-28T05:33:54;11.17;;;6.50;;
20482;SDS011;10400;53.198;6.592;2023-02-28T05:36:20;11.00;;;6.50;;
20482;SDS011;10400;53.198;6.592;2023-02-28T05:38:46;12.03;;;7.03;;
20482;SDS011;10400;53.198;6.592;2023-02-28T05:41:13;10.90;;;6.87;;
20482;SDS011;10400;53.198;6.592;2023-02-28T05:43:39;10.00;;;6.63;;
20482;SDS011;10400;53.198;6.592;2023-02-28T05:46:05;11.20;;;6.90;;
20482;SDS011;10400;53.198;6.592;2023-02-28T05:48:32;10.03;;;6.80;;
20482;SDS011;10400;53.198;6.592;2023-02-28T05:50:59;11.40;;;7.60;;
20482;SDS011;10400;53.198;6.592;2023-02-28T05:53:25;12.50;;;7.60;;
20482;SDS011;10400;53.198;6.592;2023-02-28T05:55:51;14.73;;;7.50;;
20482;SDS011;10400;53.198;6.592;2023-02-28T05:58:17;10.53;;;7.23;;
20482;SDS011;10400;53.198;6.592;2023-02-28T06:00:43;11.40;;;7.47;;
20482;SDS011;10400;53.198;6.592;2023-02-28T06:03:10;11.57;;;7.27;;
20482;SDS011;10400;53.198;6.592;2023-02-28T06:05:36;11.00;;;6.97;;
20482;SDS011;10400;53.198;6.592;2023-02-28T06:08:03;10.67;;;7.17;;
20482;SDS011;10400;53.198;6.592;2023-02-28T06:10:31;12.73;;;7.30;;
20482;SDS011;10400;53.198;6.592;2023-02-28T06:13:01;10.63;;;7.23;;
20482;SDS011;10400;53.198;6.592;2023-02-28T06:15:28;13.17;;;7.67;;
20482;SDS011;10400;53.198;6.592;2023-02-28T06:17:54;13.47;;;8.37;;
20482;SDS011;10400;53.198;6.592;2023-02-28T06:20:24;12.23;;;7.60;;
20482;SDS011;10400;53.198;6.592;2023-02-28T06:22:54;11.57;;;7.90;;
20482;SDS011;10400;53.198;6.592;2023-02-28T06:25:26;11.93;;;8.20;;
20482;SDS011;10400;53.198;6.592;2023-02-28T06:27:52;13.00;;;7.97;;
20482;SDS011;10400;53.198;6.592;2023-02-28T06:30:18;11.07;;;8.13;;
20482;SDS011;10400;53.198;6.592;2023-02-28T06:32:51;14.37;;;8.87;;
20482;SDS011;10400;53.198;6.592;2023-02-28T06:35:17;12.50;;;8.67;;
20482;SDS011;10400;53.198;6.592;2023-02-28T06:37:43;12.37;;;8.33;;
20482;SDS011;10400;53.198;6.592;2023-02-28T06:40:12;13.23;;;8.37;;
20482;SDS011;10400;53.198;6.592;2023-02-28T06:42:37;12.70;;;8.85;;
20482;SDS011;10400;53.198;6.592;2023-02-28T06:45:03;14.70;;;9.20;;
20482;SDS011;10400;53.198;6.592;2023-02-28T06:47:34;14.43;;;8.53;;
20482;SDS011;10400;53.198;6.592;2023-02-28T06:50:01;14.77;;;8.80;;
20482;SDS011;10400;53.198;6.592;2023-02-28T06:52:27;13.83;;;8.47;;
20482;SDS011;10400;53.198;6.592;2023-02-28T06:54:53;15.57;;;9.33;;
20482;SDS011;10400;53.198;6.592;2023-02-28T06:57:25;15.30;;;9.53;;
20482;SDS011;10400;53.198;6.592;2023-02-28T06:59:56;15.93;;;9.37;;
20482;SDS011;10400;53.198;6.592;2023-02-28T07:02:23;14.17;;;9.73;;
20482;SDS011;10400;53.198;6.592;2023-02-28T07:04:48;17.37;;;11.03;;
20482;SDS011;10400;53.198;6.592;2023-02-28T07:07:14;15.23;;;9.93;;
20482;SDS011;10400;53.198;6.592;2023-02-28T07:09:40;15.03;;;10.00;;
20482;SDS011;10400;53.198;6.592;2023-02-28T07:12:05;15.03;;;10.17;;
20482;SDS011;10400;53.198;6.592;2023-02-28T07:14:31;18.30;;;10.40;;
20482;SDS011;10400;53.198;6.592;2023-02-28T07:16:56;14.67;;;9.97;;
20482;SDS011;10400;53.198;6.592;2023-02-28T07:19:22;17.30;;;10.17;;
20482;SDS011;10400;53.198;6.592;2023-02-28T07:21:48;16.60;;;9.88;;
20482;SDS011;10400;53.198;6.592;2023-02-28T07:24:14;15.57;;;9.33;;
20482;SDS011;10400;53.198;6.592;2023-02-28T07:26:41;18.90;;;10.10;;
20482;SDS011;10400;53.198;6.592;2023-02-28T07:29:06;13.57;;;9.70;;
20482;SDS011;10400;53.198;6.592;2023-02-28T07:31:32;16.23;;;10.00;;
20482;SDS011;10400;53.198;6.592;2023-02-28T07:33:58;18.47;;;10.17;;
20482;SDS011;10400;53.198;6.592;2023-02-28T07:36:23;16.07;;;9.83;;
20482;SDS011;10400;53.198;6.592;2023-02-28T07:38:49;17.27;;;9.13;;
20482;SDS011;10400;53.198;6.592;2023-02-28T07:41:15;15.03;;;9.17;;
20482;SDS011;10400;53.198;6.592;2023-02-28T07:43:42;17.17;;;9.63;;
20482;SDS011;10400;53.198;6.592;2023-02-28T07:46:10;16.77;;;10.10;;
20482;SDS011;10400;53.198;6.592;2023-02-28T07:48:37;16.10;;;10.17;;
20482;SDS011;10400;53.198;6.592;2023-02-28T07:51:03;20.53;;;9.80;;
20482;SDS011;10400;53.198;6.592;2023-02-28T07:53:29;16.30;;;9.80;;
20482;SDS011;10400;53.198;6.592;2023-02-28T07:55:56;15.87;;;10.07;;
20482;SDS011;10400;53.198;6.592;2023-02-28T07:58:22;17.70;;;10.10;;
20482;SDS011;10400;53.198;6.592;2023-02-28T08:00:49;14.80;;;9.93;;
20482;SDS011;10400;53.198;6.592;2023-02-28T08:03:15;14.90;;;10.00;;
20482;SDS011;10400;53.198;6.592;2023-02-28T08:05:41;16.60;;;10.23;;
20482;SDS011;10400;53.198;6.592;2023-02-28T08:08:07;18.23;;;9.70;;
20482;SDS011;10400;53.198;6.592;2023-02-28T08:10:33;15.57;;;9.93;;
20482;SDS011;10400;53.198;6.592;2023-02-28T08:12:59;15.23;;;9.50;;
20482;SDS011;10400;53.198;6.592;2023-02-28T08:15:25;17.00;;;9.43;;
20482;SDS011;10400;53.198;6.592;2023-02-28T08:17:51;13.87;;;9.30;;
20482;SDS011;10400;53.198;6.592;2023-02-28T08:20:17;15.55;;;9.00;;
20482;SDS011;10400;53.198;6.592;2023-02-28T08:22:43;16.00;;;9.55;;
20482;SDS011;10400;53.198;6.592;2023-02-28T08:25:09;16.38;;;9.75;;
20482;SDS011;10400;53.198;6.592;2023-02-28T08:27:35;16.73;;;9.90;;
20482;SDS011;10400;53.198;6.592;2023-02-28T08:30:01;17.15;;;8.93;;
20482;SDS011;10400;53.198;6.592;2023-02-28T08:32:28;15.50;;;9.40;;
20482;SDS011;10400;53.198;6.592;2023-02-28T08:34:53;12.52;;;9.05;;
20482;SDS011;10400;53.198;6.592;2023-02-28T08:37:19;14.00;;;9.05;;
20482;SDS011;10400;53.198;6.592;2023-02-28T08:39:45;16.30;;;8.95;;
20482;SDS011;10400;53.198;6.592;2023-02-28T08:42:11;15.73;;;8.95;;
20482;SDS011;10400;53.198;6.592;2023-02-28T08:44:36;16.90;;;9.70;;
20482;SDS011;10400;53.198;6.592;2023-02-28T08:47:02;14.07;;;9.10;;
20482;SDS011;10400;53.198;6.592;2023-02-28T08:49:28;13.80;;;8.85;;
20482;SDS011;10400;53.198;6.592;2023-02-28T08:51:53;14.02;;;9.50;;
20482;SDS011;10400;53.198;6.592;2023-02-28T08:54:22;17.55;;;8.98;;
20482;SDS011;10400;53.198;6.592;2023-02-28T08:56:48;14.48;;;9.57;;
20482;SDS011;10400;53.198;6.592;2023-02-28T08:59:13;15.25;;;9.73;;
20482;SDS011;10400;53.198;6.592;2023-02-28T09:01:39;17.02;;;9.02;;
20482;SDS011;10400;53.198;6.592;2023-02-28T09:04:06;15.13;;;9.38;;
20482;SDS011;10400;53.198;6.592;2023-02-28T09:06:33;15.57;;;9.18;;
20482;SDS011;10400;53.198;6.592;2023-02-28T09:09:00;15.63;;;10.13;;
20482;SDS011;10400;53.198;6.592;2023-02-28T09:11:26;16.40;;;9.98;;
20482;SDS011;10400;53.198;6.592;2023-02-28T09:13:53;15.52;;;10.43;;
20482;SDS011;10400;53.198;6.592;2023-02-28T09:16:20;15.80;;;9.48;;
20482;SDS011;10400;53.198;6.592;2023-02-28T09:18:46;13.52;;;9.25;;
20482;SDS011;10400;53.198;6.592;2023-02-28T09:21:15;12.43;;;8.82;;
20482;SDS011;10400;53.198;6.592;2023-02-28T09:23:42;15.38;;;8.95;;
20482;SDS011;10400;53.198;6.592;2023-02-28T09:26:27;22.05;;;11.68;;
20482;SDS011;10400;53.198;6.592;2023-02-28T09:28:53;14.23;;;9.57;;
20482;SDS011;10400;53.198;6.592;2023-02-28T09:31:21;15.85;;;10.07;;
20482;SDS011;10400;53.198;6.592;2023-02-28T09:33:49;14.13;;;9.10;;
20482;SDS011;10400;53.198;6.592;2023-02-28T09:36:16;16.05;;;9.85;;
20482;SDS011;10400;53.198;6.592;2023-02-28T09:38:42;14.32;;;9.82;;
20482;SDS011;10400;53.198;6.592;2023-02-28T09:41:12;17.00;;;8.98;;
20482;SDS011;10400;53.198;6.592;2023-02-28T09:43:40;16.58;;;9.90;;
20482;SDS011;10400;53.198;6.592;2023-02-28T09:49:00;14.65;;;9.80;;
20482;SDS011;10400;53.198;6.592;2023-02-28T09:51:44;13.57;;;8.95;;
20482;SDS011;10400;53.198;6.592;2023-02-28T09:54:27;13.70;;;8.57;;
20482;SDS011;10400;53.198;6.592;2023-02-28T09:59:31;13.85;;;8.88;;
20482;SDS011;10400;53.198;6.592;2023-02-28T10:09:49;18.05;;;9.57;;
20482;SDS011;10400;53.198;6.592;2023-02-28T10:12:21;13.70;;;8.13;;
20482;SDS011;10400;53.198;6.592;2023-02-28T10:14:47;13.80;;;8.70;;
20482;SDS011;10400;53.198;6.592;2023-02-28T10:17:18;13.70;;;8.30;;
20482;SDS011;10400;53.198;6.592;2023-02-28T10:19:51;12.45;;;7.68;;
20482;SDS011;10400;53.198;6.592;2023-02-28T10:24:59;12.70;;;7.88;;
20482;SDS011;10400;53.198;6.592;2023-02-28T10:27:33;13.35;;;8.35;;
20482;SDS011;10400;53.198;6.592;2023-02-28T10:30:00;14.77;;;7.25;;
20482;SDS011;10400;53.198;6.592;2023-02-28T10:32:29;13.80;;;7.25;;
20482;SDS011;10400;53.198;6.592;2023-02-28T10:37:39;10.05;;;6.88;;
20482;SDS011;10400;53.198;6.592;2023-02-28T10:40:25;9.90;;;6.50;;
20482;SDS011;10400;53.198;6.592;2023-02-28T10:43:03;9.55;;;6.25;;
20482;SDS011;10400;53.198;6.592;2023-02-28T10:45:34;7.70;;;5.32;;
20482;SDS011;10400;53.198;6.592;2023-02-28T10:48:23;9.57;;;5.43;;
20482;SDS011;10400;53.198;6.592;2023-02-28T10:50:56;8.68;;;4.88;;
20482;SDS011;10400;53.198;6.592;2023-02-28T10:56:02;9.20;;;5.93;;
20482;SDS011;10400;53.198;6.592;2023-02-28T11:01:44;13.25;;;5.25;;
20482;SDS011;10400;53.198;6.592;2023-02-28T11:06:46;12.52;;;6.20;;
20482;SDS011;10400;53.198;6.592;2023-02-28T11:11:54;9.75;;;5.30;;
20482;SDS011;10400;53.198;6.592;2023-02-28T11:14:30;8.77;;;5.00;;
20482;SDS011;10400;53.198;6.592;2023-02-28T11:17:01;8.55;;;5.00;;
20482;SDS011;10400;53.198;6.592;2023-02-28T11:19:39;7.53;;;4.95;;
20482;SDS011;10400;53.198;6.592;2023-02-28T11:22:09;10.73;;;5.35;;
20482;SDS011;10400;53.198;6.592;2023-02-28T11:24:45;9.32;;;4.95;;
20482;SDS011;10400;53.198;6.592;2023-02-28T11:27:25;10.68;;;5.32;;
20482;SDS011;10400;53.198;6.592;2023-02-28T11:29:51;9.55;;;5.07;;
20482;SDS011;10400;53.198;6.592;2023-02-28T11:32:23;8.70;;;4.20;;
20482;SDS011;10400;53.198;6.592;2023-02-28T11:38:12;9.35;;;5.10;;
20482;SDS011;10400;53.198;6.592;2023-02-28T11:40:43;6.95;;;4.47;;
20482;SDS011;10400;53.198;6.592;2023-02-28T11:51:32;7.22;;;4.22;;
20482;SDS011;10400;53.198;6.592;2023-02-28T12:03:06;6.60;;;3.83;;
20482;SDS011;10400;53.198;6.592;2023-02-28T12:05:47;7.65;;;4.55;;
20482;SDS011;10400;53.198;6.592;2023-02-28T12:16:50;6.55;;;3.83;;
20482;SDS011;10400;53.198;6.592;2023-02-28T12:19:20;7.05;;;3.75;;
20482;SDS011;10400;53.198;6.592;2023-02-28T12:22:00;5.25;;;3.67;;
20482;SDS011;10400;53.198;6.592;2023-02-28T12:27:11;7.15;;;4.43;;
20482;SDS011;10400;53.198;6.592;2023-02-28T12:29:43;7.60;;;3.80;;
20482;SDS011;10400;53.198;6.592;2023-02-28T12:32:19;5.82;;;3.95;;
20482;SDS011;10400;53.198;6.592;2023-02-28T12:34:57;6.05;;;4.30;;
20482;SDS011;10400;53.198;6.592;2023-02-28T12:41:29;7.47;;;4.40;;
20482;SDS011;10400;53.198;6.592;2023-02-28T12:43:39;8.27;;;4.60;;
20482;SDS011;10400;53.198;6.592;2023-02-28T12:46:14;7.68;;;4.95;;
20482;SDS011;10400;53.198;6.592;2023-02-28T12:48:52;8.05;;;4.85;;
20482;SDS011;10400;53.198;6.592;2023-02-28T12:51:21;10.60;;;5.25;;
20482;SDS011;10400;53.198;6.592;2023-02-28T12:53:53;6.45;;;4.60;;
20482;SDS011;10400;53.198;6.592;2023-02-28T12:59:01;8.27;;;4.53;;
20482;SDS011;10400;53.198;6.592;2023-02-28T13:09:37;7.63;;;5.20;;
20482;SDS011;10400;53.198;6.592;2023-02-28T13:12:14;7.93;;;4.85;;
20482;SDS011;10400;53.198;6.592;2023-02-28T13:14:41;10.88;;;4.60;;
20482;SDS011;10400;53.198;6.592;2023-02-28T13:19:46;6.30;;;4.53;;
20482;SDS011;10400;53.198;6.592;2023-02-28T13:27:47;13.00;;;4.80;;
20482;SDS011;10400;53.198;6.592;2023-02-28T13:36:11;8.55;;;4.30;;
20482;SDS011;10400;53.198;6.592;2023-02-28T13:38:57;10.93;;;4.50;;
20482;SDS011;10400;53.198;6.592;2023-02-28T13:41:47;6.43;;;4.40;;
20482;SDS011;10400;53.198;6.592;2023-02-28T13:44:17;9.05;;;4.97;;
20482;SDS011;10400;53.198;6.592;2023-02-28T14:05:22;9.15;;;5.10;;
20482;SDS011;10400;53.198;6.592;2023-02-28T14:07:54;8.68;;;5.47;;
20482;SDS011;10400;53.198;6.592;2023-02-28T14:10:31;7.45;;;5.03;;
20482;SDS011;10400;53.198;6.592;2023-02-28T14:13:37;8.65;;;5.70;;
20482;SDS011;10400;53.198;6.592;2023-02-28T14:16:25;7.53;;;4.90;;
20482;SDS011;10400;53.198;6.592;2023-02-28T14:18:58;8.90;;;5.35;;
20482;SDS011;10400;53.198;6.592;2023-02-28T14:21:35;7.85;;;4.82;;
20482;SDS011;10400;53.198;6.592;2023-02-28T14:29:43;7.30;;;5.40;;
20482;SDS011;10400;53.198;6.592;2023-02-28T14:32:27;6.20;;;4.82;;
20482;SDS011;10400;53.198;6.592;2023-02-28T14:35:05;10.57;;;5.68;;
20482;SDS011;10400;53.198;6.592;2023-02-28T14:37:52;8.13;;;5.30;;
20482;SDS011;10400;53.198;6.592;2023-02-28T14:42:55;11.30;;;6.57;;
20482;SDS011;10400;53.198;6.592;2023-02-28T14:45:26;9.18;;;6.03;;
20482;SDS011;10400;53.198;6.592;2023-02-28T14:47:56;7.38;;;5.32;;
20482;SDS011;10400;53.198;6.592;2023-02-28T14:50:31;9.77;;;5.63;;
20482;SDS011;10400;53.198;6.592;2023-02-28T14:53:01;8.18;;;5.60;;
20482;SDS011;10400;53.198;6.592;2023-02-28T14:55:28;8.95;;;5.32;;
20482;SDS011;10400;53.198;6.592;2023-02-28T14:57:57;9.43;;;5.50;;
20482;SDS011;10400;53.198;6.592;2023-02-28T15:02:52;10.35;;;5.43;;
20482;SDS011;10400;53.198;6.592;2023-02-28T15:05:22;11.20;;;5.95;;
20482;SDS011;10400;53.198;6.592;2023-02-28T15:08:02;8.27;;;5.20;;
20482;SDS011;10400;53.198;6.592;2023-02-28T15:10:41;8.95;;;5.75;;
20482;SDS011;10400;53.198;6.592;2023-02-28T15:13:13;11.25;;;5.93;;
20482;SDS011;10400;53.198;6.592;2023-02-28T15:21:15;12.35;;;5.85;;
20482;SDS011;10400;53.198;6.592;2023-02-28T15:24:02;8.90;;;5.38;;
20482;SDS011;10400;53.198;6.592;2023-02-28T15:26:33;6.82;;;5.30;;
20482;SDS011;10400;53.198;6.592;2023-02-28T15:29:15;10.77;;;5.78;;
20482;SDS011;10400;53.198;6.592;2023-02-28T15:31:45;8.98;;;5.22;;
20482;SDS011;10400;53.198;6.592;2023-02-28T15:34:46;9.57;;;5.80;;
20482;SDS011;10400;53.198;6.592;2023-02-28T15:39:58;16.05;;;6.00;;
20482;SDS011;10400;53.198;6.592;2023-02-28T15:42:41;10.15;;;5.68;;
20482;SDS011;10400;53.198;6.592;2023-02-28T15:50:57;7.20;;;5.00;;
20482;SDS011;10400;53.198;6.592;2023-02-28T15:53:30;8.77;;;6.00;;
20482;SDS011;10400;53.198;6.592;2023-02-28T15:56:00;10.20;;;5.85;;
20482;SDS011;10400;53.198;6.592;2023-02-28T15:58:34;8.98;;;5.50;;
20482;SDS011;10400;53.198;6.592;2023-02-28T16:01:06;14.10;;;6.55;;
20482;SDS011;10400;53.198;6.592;2023-02-28T16:03:49;10.18;;;5.65;;
20482;SDS011;10400;53.198;6.592;2023-02-28T16:08:49;9.05;;;5.68;;
20482;SDS011;10400;53.198;6.592;2023-02-28T16:11:16;9.25;;;6.40;;
20482;SDS011;10400;53.198;6.592;2023-02-28T16:13:42;7.60;;;6.05;;
20482;SDS011;10400;53.198;6.592;2023-02-28T16:16:08;13.43;;;6.25;;
20482;SDS011;10400;53.198;6.592;2023-02-28T16:18:39;9.20;;;5.88;;
20482;SDS011;10400;53.198;6.592;2023-02-28T16:21:05;10.98;;;5.85;;
20482;SDS011;10400;53.198;6.592;2023-02-28T16:23:30;7.78;;;5.93;;
20482;SDS011;10400;53.198;6.592;2023-02-28T16:25:56;10.20;;;6.55;;
20482;SDS011;10400;53.198;6.592;2023-02-28T16:28:26;9.73;;;6.10;;
20482;SDS011;10400;53.198;6.592;2023-02-28T16:30:57;8.23;;;6.28;;
20482;SDS011;10400;53.198;6.592;2023-02-28T16:33:24;9.55;;;6.43;;
20482;SDS011;10400;53.198;6.592;2023-02-28T16:35:50;8.73;;;6.10;;
20482;SDS011;10400;53.198;6.592;2023-02-28T16:38:15;10.57;;;6.13;;
20482;SDS011;10400;53.198;6.592;2023-02-28T16:40:41;12.13;;;6.32;;
20482;SDS011;10400;53.198;6.592;2023-02-28T16:43:13;9.40;;;6.28;;
20482;SDS011;10400;53.198;6.592;2023-02-28T16:45:42;13.50;;;7.18;;
20482;SDS011;10400;53.198;6.592;2023-02-28T16:48:15;9.90;;;6.68;;
20482;SDS011;10400;53.198;6.592;2023-02-28T16:50:41;13.57;;;6.82;;
20482;SDS011;10400;53.198;6.592;2023-02-28T16:53:08;10.95;;;6.45;;
20482;SDS011;10400;53.198;6.592;2023-02-28T16:55:34;13.05;;;6.65;;
20482;SDS011;10400;53.198;6.592;2023-02-28T16:58:00;12.43;;;6.90;;
20482;SDS011;10400;53.198;6.592;2023-02-28T17:00:27;8.32;;;6.50;;
20482;SDS011;10400;53.198;6.592;2023-02-28T17:02:55;11.80;;;6.85;;
20482;SDS011;10400;53.198;6.592;2023-02-28T17:05:22;9.38;;;6.85;;
20482;SDS011;10400;53.198;6.592;2023-02-28T17:07:49;10.23;;;6.90;;
20482;SDS011;10400;53.198;6.592;2023-02-28T17:10:16;7.63;;;6.75;;
20482;SDS011;10400;53.198;6.592;2023-02-28T17:12:43;10.18;;;6.45;;
20482;SDS011;10400;53.198;6.592;2023-02-28T17:15:13;10.02;;;7.25;;
20482;SDS011;10400;53.198;6.592;2023-02-28T17:17:40;11.70;;;7.50;;
20482;SDS011;10400;53.198;6.592;2023-02-28T17:20:09;10.77;;;7.70;;
20482;SDS011;10400;53.198;6.592;2023-02-28T17:22:40;11.57;;;7.70;;
20482;SDS011;10400;53.198;6.592;2023-02-28T17:25:06;11.52;;;8.30;;
20482;SDS011;10400;53.198;6.592;2023-02-28T17:27:33;12.20;;;7.55;;
20482;SDS011;10400;53.198;6.592;2023-02-28T17:29:59;9.55;;;7.10;;
20482;SDS011;10400;53.198;6.592;2023-02-28T17:32:26;12.18;;;7.47;;
20482;SDS011;10400;53.198;6.592;2023-02-28T17:34:52;12.45;;;7.80;;
20482;SDS011;10400;53.198;6.592;2023-02-28T17:37:18;14.98;;;8.77;;
20482;SDS011;10400;53.198;6.592;2023-02-28T17:39:47;11.77;;;8.00;;
20482;SDS011;10400;53.198;6.592;2023-02-28T17:42:12;12.32;;;8.10;;
20482;SDS011;10400;53.198;6.592;2023-02-28T17:44:38;11.00;;;7.68;;
20482;SDS011;10400;53.198;6.592;2023-02-28T17:47:04;11.32;;;7.90;;
20482;SDS011;10400;53.198;6.592;2023-02-28T17:49:29;13.25;;;8.07;;
20482;SDS011;10400;53.198;6.592;2023-02-28T17:51:55;12.75;;;8.20;;